Asian Pride — 9V3662 — position and weather

sailwx.info

Track history (hours):
 
Tides and Currents Weather Stations Pressure Air Temp Water Temp Dewpoint Dewpoint Depression Visibility Wind Speed Wind Dir Waves Ship Positions

Asian Pride

Last reported at 2018-Feb-06 21:26 UTC. Time now 2018-Feb-19 02:10 UTC.
Position N 36°56' E 012°22'.
Warning: this ship's position is 12 days out of date.

Length 200 m; draft 12.7 m.

Type: Cargo ship. MMSI: 563025500.

Date/timePositionNaut miles runAvg speedWind from/ knotsBaromVisibWave heightAir tempDewpointWater temp
2018-Feb-06 21:26N 36°56' E 012°22'612.8
2018-Feb-06 20:58N 36°54' E 012°29'1212.6
2018-Feb-06 20:00N 36°48' E 012°43'4612.3
2018-Feb-06 16:13N 36°26' E 013°33'312.8
2018-Feb-06 16:00N 36°24' E 013°36'612.4
2018-Feb-06 15:30N 36°22' E 013°44'1312.5
2018-Feb-06 14:30N 36°21' E 013°59'612.4
2018-Feb-06 13:59N 36°21' E 014°07'1212.3
2018-Feb-06 13:00N 36°21' E 014°22'612.8
2018-Feb-06 12:30N 36°20' E 014°30'712.9
2018-Feb-06 11:59N 36°20' E 014°38'  
2018-Feb-03 10:48N 40°56' E 028°51'1 1.4
2018-Feb-03 10:22N 40°56' E 028°52'2 4.4
2018-Feb-03 09:57N 40°56' E 028°54'3 5.8
2018-Feb-03 09:30N 40°58' E 028°57'323 8.5
2018-Feb-01 19:30N 46°07' E 031°04'612.0
2018-Feb-01 19:00N 46°11' E 030°58'510.4
2018-Feb-01 18:30N 46°15' E 030°54'510.2
2018-Feb-01 18:00N 46°20' E 030°55'510.6
2018-Feb-01 17:30N 46°26' E 030°55'510.4
2018-Feb-01 17:00N 46°31' E 030°55'4 8.6
2018-Feb-01 16:30N 46°33' E 031°00'3 6.1
2018-Feb-01 16:00N 46°35' E 031°05'2 4.0
2018-Feb-01 15:29N 46°35' E 031°08'0 0.1
2018-Feb-01 14:59N 46°35' E 031°08'0 0.0
2018-Feb-01 13:29N 46°35' E 031°08'0 0.0
2018-Feb-01 12:56N 46°35' E 031°08'0 0.0
2018-Feb-01 12:29N 46°35' E 031°08'0 0.0
2018-Feb-01 11:59N 46°35' E 031°08'0 0.0
2018-Feb-01 10:59N 46°35' E 031°08'0 0.0
2018-Feb-01 10:29N 46°35' E 031°08'0 0.0
2018-Feb-01 09:59N 46°35' E 031°08'0 0.0
2018-Feb-01 09:29N 46°35' E 031°08'0 0.0
2018-Feb-01 08:56N 46°35' E 031°08'0 0.0
2018-Feb-01 08:29N 46°35' E 031°08'0 0.0
2018-Feb-01 07:29N 46°35' E 031°08'0 0.0
2018-Feb-01 06:59N 46°35' E 031°08'0 0.0
2018-Feb-01 06:29N 46°35' E 031°08'0 0.0
2018-Feb-01 05:56N 46°35' E 031°08'0 0.0
2018-Feb-01 05:29N 46°35' E 031°08'0 0.0
2018-Feb-01 04:56N 46°35' E 031°08'0 0.0
2018-Feb-01 04:29N 46°35' E 031°08'0 0.0
2018-Feb-01 03:59N 46°35' E 031°08'0 0.0
2018-Feb-01 02:59N 46°35' E 031°08'0 0.0
2018-Feb-01 02:29N 46°35' E 031°08'0 0.0
2018-Feb-01 01:59N 46°35' E 031°08'0 0.0
2018-Feb-01 01:29N 46°35' E 031°08'0 0.0
2018-Feb-01 00:59N 46°35' E 031°08'0 0.0
2018-Feb-01 00:29N 46°35' E 031°08'0 0.0
2018-Jan-31 23:59N 46°35' E 031°08'0 0.0
2018-Jan-31 22:59N 46°35' E 031°08'0 0.0
2018-Jan-31 22:29N 46°35' E 031°08'0 0.0
2018-Jan-31 20:59N 46°35' E 031°08'0 0.0
2018-Jan-31 20:29N 46°35' E 031°08'0 0.0
2018-Jan-31 19:59N 46°35' E 031°08'0 0.0
2018-Jan-31 19:29N 46°35' E 031°08'0 0.0
2018-Jan-31 18:59N 46°35' E 031°08'0 0.0
2018-Jan-31 18:29N 46°35' E 031°08'0 0.0
2018-Jan-31 17:59N 46°35' E 031°08'0 0.0
2018-Jan-31 17:29N 46°35' E 031°08'0 0.0
2018-Jan-31 16:59N 46°35' E 031°08'0 0.0
2018-Jan-31 16:26N 46°35' E 031°08'0 0.0
2018-Jan-31 15:53N 46°35' E 031°08'0 0.0
2018-Jan-31 15:29N 46°35' E 031°08'0 0.0
2018-Jan-31 14:59N 46°35' E 031°08'0 0.0
2018-Jan-31 14:29N 46°35' E 031°08'0 0.0
2018-Jan-31 12:59N 46°35' E 031°08'0 0.0
2018-Jan-31 12:29N 46°35' E 031°08'0 0.0
2018-Jan-31 11:59N 46°35' E 031°08'0 0.0
2018-Jan-31 11:23N 46°35' E 031°08'0 0.0
2018-Jan-31 10:59N 46°34' E 031°08'0 0.0
2018-Jan-31 10:29N 46°34' E 031°08'0 0.0
2018-Jan-31 09:56N 46°35' E 031°08'0 0.0
2018-Jan-31 09:29N 46°35' E 031°08'0 0.0
2018-Jan-31 08:59N 46°35' E 031°08'0 0.0
2018-Jan-31 08:29N 46°35' E 031°08'0 0.0
2018-Jan-31 07:59N 46°35' E 031°08'0 0.0
2018-Jan-31 07:29N 46°35' E 031°08'0 0.0
2018-Jan-31 06:59N 46°35' E 031°08'0 0.0
2018-Jan-31 06:29N 46°35' E 031°08'0 0.0
2018-Jan-31 05:59N 46°35' E 031°08'0 0.0
2018-Jan-31 05:29N 46°35' E 031°08'0 0.0
2018-Jan-31 04:59N 46°35' E 031°08'0 0.0
2018-Jan-31 04:29N 46°35' E 031°08'0 0.0
2018-Jan-31 03:56N 46°35' E 031°08'0 0.0
2018-Jan-31 03:29N 46°35' E 031°08'0 0.0
2018-Jan-31 02:59N 46°35' E 031°08'0 0.0
2018-Jan-31 02:26N 46°35' E 031°08'0 0.0
2018-Jan-31 01:59N 46°35' E 031°08'0 0.0
2018-Jan-31 01:29N 46°35' E 031°08'0 0.6
2018-Jan-31 01:00N 46°35' E 031°07'5 4.7
2018-Jan-31 00:00N 46°35' E 031°01'3 4.6
2018-Jan-30 23:27N 46°38' E 031°01'0 0.2
2018-Jan-30 22:55N 46°38' E 031°01'0 0.0
2018-Jan-30 18:43N 46°38' E 031°01'0 0.0
2018-Jan-30 18:25N 46°38' E 031°01'0 0.0
2018-Jan-30 17:55N 46°38' E 031°01'0 0.0
2018-Jan-30 12:25N 46°38' E 031°01'0 0.0
2018-Jan-30 11:58N 46°38' E 031°01'0 0.0
2018-Jan-30 11:22N 46°38' E 031°01'0 0.0
2018-Jan-30 10:28N 46°38' E 031°01'0 0.0
2018-Jan-30 09:28N 46°38' E 031°01'0 0.0
2018-Jan-30 08:58N 46°38' E 031°01'0 0.0
2018-Jan-30 08:28N 46°38' E 031°01'0 0.0
2018-Jan-30 07:37N 46°38' E 031°01'0 0.0
2018-Jan-30 07:25N 46°38' E 031°01'0 0.0
2018-Jan-30 06:49N 46°38' E 031°01'0 0.0
2018-Jan-30 06:25N 46°38' E 031°01'0 0.0
2018-Jan-30 05:37N 46°38' E 031°01'0 0.0
2018-Jan-30 05:13N 46°38' E 031°01'0 0.0
2018-Jan-30 04:43N 46°38' E 031°01'0 0.0
2018-Jan-30 04:19N 46°38' E 031°01'0 0.0
2018-Jan-30 03:55N 46°38' E 031°01'0 0.0
2018-Jan-30 03:25N 46°38' E 031°01'0 0.0
2018-Jan-30 02:49N 46°38' E 031°01'0 0.0
2018-Jan-30 02:25N 46°38' E 031°01'0 0.0
2018-Jan-30 01:49N 46°38' E 031°01'0 0.0
2018-Jan-30 01:25N 46°38' E 031°01'0 0.0
2018-Jan-30 00:49N 46°38' E 031°01'0 0.0
2018-Jan-30 00:25N 46°38' E 031°01'0 0.0
2018-Jan-29 23:55N 46°38' E 031°01'0 0.0
2018-Jan-29 23:01N 46°38' E 031°01'0 0.0
2018-Jan-29 22:55N 46°38' E 031°01'0 0.0
2018-Jan-29 22:25N 46°38' E 031°01'0 0.0
2018-Jan-29 21:55N 46°38' E 031°01'0 0.0
2018-Jan-29 21:25N 46°38' E 031°01'0 0.0
2018-Jan-29 20:49N 46°38' E 031°01'0 0.0
2018-Jan-29 20:19N 46°38' E 031°01'0 0.0
2018-Jan-29 19:55N 46°38' E 031°01'0 0.0
2018-Jan-29 19:25N 46°38' E 031°01'0 0.0
2018-Jan-29 18:55N 46°38' E 031°01'0 0.0
2018-Jan-29 18:30N 46°38' E 031°01'0 0.0
2018-Jan-29 18:00N 46°38' E 031°01'0 0.0
2018-Jan-29 17:30N 46°38' E 031°01'0 0.0
2018-Jan-29 16:06N 46°38' E 031°01'0 0.0
2018-Jan-29 13:54N 46°38' E 031°01'0 0.0
2018-Jan-29 10:00N 46°38' E 031°01'0 0.0
2018-Jan-29 08:33N 46°38' E 031°01'0 0.0
2018-Jan-29 08:24N 46°38' E 031°01'0 0.0
2018-Jan-29 07:48N 46°38' E 031°01'0 0.0
2018-Jan-29 06:36N 46°38' E 031°01'0 0.0
2018-Jan-29 06:30N 46°38' E 031°01'0 0.0
2018-Jan-29 06:00N 46°38' E 031°01'0 0.0
2018-Jan-29 05:30N 46°38' E 031°01'0 0.0
2018-Jan-29 04:57N 46°38' E 031°01'0 0.0
2018-Jan-29 04:30N 46°38' E 031°01'0 0.0
2018-Jan-29 04:00N 46°38' E 031°01'0 0.0
2018-Jan-29 03:21N 46°38' E 031°01'0 0.0
2018-Jan-29 02:24N 46°38' E 031°01'0 0.0
2018-Jan-29 02:00N 46°38' E 031°01'0 0.0
2018-Jan-29 01:30N 46°38' E 031°01'0 0.0
2018-Jan-29 01:00N 46°38' E 031°01'0 0.0
2018-Jan-29 00:30N 46°38' E 031°01'0 0.0
2018-Jan-28 22:42N 46°38' E 031°01'0 0.0
2018-Jan-28 22:30N 46°38' E 031°01'0 0.0
2018-Jan-28 21:52N 46°38' E 031°01'0 0.0
2018-Jan-28 21:04N 46°38' E 031°01'0 0.0
2018-Jan-28 20:58N 46°38' E 031°01'0 0.0
2018-Jan-28 20:22N 46°38' E 031°01'0 0.0
2018-Jan-28 19:58N 46°38' E 031°01'0 0.0
2018-Jan-28 19:22N 46°38' E 031°01'0 0.0
2018-Jan-28 18:46N 46°38' E 031°01'0 0.0
2018-Jan-28 18:22N 46°38' E 031°01'0 0.0
2018-Jan-28 17:58N 46°38' E 031°01'0 0.0
2018-Jan-28 17:28N 46°38' E 031°01'0 0.0
2018-Jan-28 16:46N 46°38' E 031°01'0 0.0
2018-Jan-28 16:22N 46°38' E 031°01'0 0.0
2018-Jan-28 15:46N 46°38' E 031°01'0 0.0
2018-Jan-28 15:28N 46°38' E 031°01'0 0.0
2018-Jan-28 14:58N 46°38' E 031°01'0 0.0
2018-Jan-28 14:28N 46°38' E 031°01'0 0.0
2018-Jan-28 13:58N 46°38' E 031°01'0 0.0
2018-Jan-28 13:22N 46°38' E 031°01'0 0.0
2018-Jan-28 12:58N 46°38' E 031°01'0 0.0
2018-Jan-28 12:22N 46°38' E 031°01'0 0.0
2018-Jan-28 11:58N 46°38' E 031°01'0 0.0
2018-Jan-28 11:28N 46°38' E 031°01'0 0.0
2018-Jan-28 10:52N 46°38' E 031°01'0 0.0
2018-Jan-28 10:28N 46°38' E 031°01'0 0.0
2018-Jan-28 09:58N 46°38' E 031°01'0 0.0
2018-Jan-28 09:22N 46°38' E 031°01'0 0.0
2018-Jan-28 08:58N 46°38' E 031°01'0 0.0
2018-Jan-28 08:28N 46°38' E 031°01'0 0.0
2018-Jan-28 07:58N 46°38' E 031°01'0 0.0
2018-Jan-28 07:28N 46°38' E 031°01'0 0.0
2018-Jan-28 06:52N 46°38' E 031°01'0 0.0
2018-Jan-28 06:28N 46°38' E 031°01'0 0.0
2018-Jan-28 04:22N 46°38' E 031°01'0 0.0
2018-Jan-28 03:16N 46°38' E 031°01'0 0.0
2018-Jan-28 02:58N 46°38' E 031°01'0 0.0
2018-Jan-28 01:45N 46°38' E 031°01'0 0.0
2018-Jan-28 01:30N 46°38' E 031°01'0 0.0
2018-Jan-28 00:45N 46°38' E 031°01'0 0.0
2018-Jan-28 00:27N 46°38' E 031°01'0 0.0
2018-Jan-27 23:57N 46°38' E 031°01'  
Track history (hours):
 
Tides and Currents Weather Stations Pressure Air Temp Water Temp Dewpoint Dewpoint Depression Visibility Wind Speed Wind Dir Waves Ship Positions

Asian Pride

Last reported at 2018-Feb-06 21:26 UTC. Time now 2018-Feb-19 02:10 UTC.
Position N 36°56' E 012°22'.
Warning: this ship's position is 12 days out of date.

Length 200 m; draft 12.7 m.

Type: Cargo ship. MMSI: 563025500.

Date/timePositionNaut miles runAvg speedWind from/ knotsBaromVisibWave heightAir tempDewpointWater temp
2018-Feb-06 21:26N 36°56' E 012°22'612.8
2018-Feb-06 20:58N 36°54' E 012°29'1212.6
2018-Feb-06 20:00N 36°48' E 012°43'4612.3
2018-Feb-06 16:13N 36°26' E 013°33'312.8
2018-Feb-06 16:00N 36°24' E 013°36'612.4
2018-Feb-06 15:30N 36°22' E 013°44'1312.5
2018-Feb-06 14:30N 36°21' E 013°59'612.4
2018-Feb-06 13:59N 36°21' E 014°07'1212.3
2018-Feb-06 13:00N 36°21' E 014°22'612.8
2018-Feb-06 12:30N 36°20' E 014°30'712.9
2018-Feb-06 11:59N 36°20' E 014°38'  
2018-Feb-03 10:48N 40°56' E 028°51'1 1.4
2018-Feb-03 10:22N 40°56' E 028°52'2 4.4
2018-Feb-03 09:57N 40°56' E 028°54'3 5.8
2018-Feb-03 09:30N 40°58' E 028°57'323 8.5
2018-Feb-01 19:30N 46°07' E 031°04'612.0
2018-Feb-01 19:00N 46°11' E 030°58'510.4
2018-Feb-01 18:30N 46°15' E 030°54'510.2
2018-Feb-01 18:00N 46°20' E 030°55'510.6
2018-Feb-01 17:30N 46°26' E 030°55'510.4
2018-Feb-01 17:00N 46°31' E 030°55'4 8.6
2018-Feb-01 16:30N 46°33' E 031°00'3 6.1
2018-Feb-01 16:00N 46°35' E 031°05'2 4.0
2018-Feb-01 15:29N 46°35' E 031°08'0 0.1
2018-Feb-01 14:59N 46°35' E 031°08'0 0.0
2018-Feb-01 13:29N 46°35' E 031°08'0 0.0
2018-Feb-01 12:56N 46°35' E 031°08'0 0.0
2018-Feb-01 12:29N 46°35' E 031°08'0 0.0
2018-Feb-01 11:59N 46°35' E 031°08'0 0.0
2018-Feb-01 10:59N 46°35' E 031°08'0 0.0
2018-Feb-01 10:29N 46°35' E 031°08'0 0.0
2018-Feb-01 09:59N 46°35' E 031°08'0 0.0
2018-Feb-01 09:29N 46°35' E 031°08'0 0.0
2018-Feb-01 08:56N 46°35' E 031°08'0 0.0
2018-Feb-01 08:29N 46°35' E 031°08'0 0.0
2018-Feb-01 07:29N 46°35' E 031°08'0 0.0
2018-Feb-01 06:59N 46°35' E 031°08'0 0.0
2018-Feb-01 06:29N 46°35' E 031°08'0 0.0
2018-Feb-01 05:56N 46°35' E 031°08'0 0.0
2018-Feb-01 05:29N 46°35' E 031°08'0 0.0
2018-Feb-01 04:56N 46°35' E 031°08'0 0.0
2018-Feb-01 04:29N 46°35' E 031°08'0 0.0
2018-Feb-01 03:59N 46°35' E 031°08'0 0.0
2018-Feb-01 02:59N 46°35' E 031°08'0 0.0
2018-Feb-01 02:29N 46°35' E 031°08'0 0.0
2018-Feb-01 01:59N 46°35' E 031°08'0 0.0
2018-Feb-01 01:29N 46°35' E 031°08'0 0.0
2018-Feb-01 00:59N 46°35' E 031°08'0 0.0
2018-Feb-01 00:29N 46°35' E 031°08'0 0.0
2018-Jan-31 23:59N 46°35' E 031°08'0 0.0
2018-Jan-31 22:59N 46°35' E 031°08'0 0.0
2018-Jan-31 22:29N 46°35' E 031°08'0 0.0
2018-Jan-31 20:59N 46°35' E 031°08'0 0.0
2018-Jan-31 20:29N 46°35' E 031°08'0 0.0
2018-Jan-31 19:59N 46°35' E 031°08'0 0.0
2018-Jan-31 19:29N 46°35' E 031°08'0 0.0
2018-Jan-31 18:59N 46°35' E 031°08'0 0.0
2018-Jan-31 18:29N 46°35' E 031°08'0 0.0
2018-Jan-31 17:59N 46°35' E 031°08'0 0.0
2018-Jan-31 17:29N 46°35' E 031°08'0 0.0
2018-Jan-31 16:59N 46°35' E 031°08'0 0.0
2018-Jan-31 16:26N 46°35' E 031°08'0 0.0
2018-Jan-31 15:53N 46°35' E 031°08'0 0.0
2018-Jan-31 15:29N 46°35' E 031°08'0 0.0
2018-Jan-31 14:59N 46°35' E 031°08'0 0.0
2018-Jan-31 14:29N 46°35' E 031°08'0 0.0
2018-Jan-31 12:59N 46°35' E 031°08'0 0.0
2018-Jan-31 12:29N 46°35' E 031°08'0 0.0
2018-Jan-31 11:59N 46°35' E 031°08'0 0.0
2018-Jan-31 11:23N 46°35' E 031°08'0 0.0
2018-Jan-31 10:59N 46°34' E 031°08'0 0.0
2018-Jan-31 10:29N 46°34' E 031°08'0 0.0
2018-Jan-31 09:56N 46°35' E 031°08'0 0.0
2018-Jan-31 09:29N 46°35' E 031°08'0 0.0
2018-Jan-31 08:59N 46°35' E 031°08'0 0.0
2018-Jan-31 08:29N 46°35' E 031°08'0 0.0
2018-Jan-31 07:59N 46°35' E 031°08'0 0.0
2018-Jan-31 07:29N 46°35' E 031°08'0 0.0
2018-Jan-31 06:59N 46°35' E 031°08'0 0.0
2018-Jan-31 06:29N 46°35' E 031°08'0 0.0
2018-Jan-31 05:59N 46°35' E 031°08'0 0.0
2018-Jan-31 05:29N 46°35' E 031°08'0 0.0
2018-Jan-31 04:59N 46°35' E 031°08'0 0.0
2018-Jan-31 04:29N 46°35' E 031°08'0 0.0
2018-Jan-31 03:56N 46°35' E 031°08'0 0.0
2018-Jan-31 03:29N 46°35' E 031°08'0 0.0
2018-Jan-31 02:59N 46°35' E 031°08'0 0.0
2018-Jan-31 02:26N 46°35' E 031°08'0 0.0
2018-Jan-31 01:59N 46°35' E 031°08'0 0.0
2018-Jan-31 01:29N 46°35' E 031°08'0 0.6
2018-Jan-31 01:00N 46°35' E 031°07'5 4.7
2018-Jan-31 00:00N 46°35' E 031°01'3 4.6
2018-Jan-30 23:27N 46°38' E 031°01'0 0.2
2018-Jan-30 22:55N 46°38' E 031°01'0 0.0
2018-Jan-30 18:43N 46°38' E 031°01'0 0.0
2018-Jan-30 18:25N 46°38' E 031°01'0 0.0
2018-Jan-30 17:55N 46°38' E 031°01'0 0.0
2018-Jan-30 12:25N 46°38' E 031°01'0 0.0
2018-Jan-30 11:58N 46°38' E 031°01'0 0.0
2018-Jan-30 11:22N 46°38' E 031°01'0 0.0
2018-Jan-30 10:28N 46°38' E 031°01'0 0.0
2018-Jan-30 09:28N 46°38' E 031°01'0 0.0
2018-Jan-30 08:58N 46°38' E 031°01'0 0.0
2018-Jan-30 08:28N 46°38' E 031°01'0 0.0
2018-Jan-30 07:37N 46°38' E 031°01'0 0.0
2018-Jan-30 07:25N 46°38' E 031°01'0 0.0
2018-Jan-30 06:49N 46°38' E 031°01'0 0.0
2018-Jan-30 06:25N 46°38' E 031°01'0 0.0
2018-Jan-30 05:37N 46°38' E 031°01'0 0.0
2018-Jan-30 05:13N 46°38' E 031°01'0 0.0
2018-Jan-30 04:43N 46°38' E 031°01'0 0.0
2018-Jan-30 04:19N 46°38' E 031°01'0 0.0
2018-Jan-30 03:55N 46°38' E 031°01'0 0.0
2018-Jan-30 03:25N 46°38' E 031°01'0 0.0
2018-Jan-30 02:49N 46°38' E 031°01'0 0.0
2018-Jan-30 02:25N 46°38' E 031°01'0 0.0
2018-Jan-30 01:49N 46°38' E 031°01'0 0.0
2018-Jan-30 01:25N 46°38' E 031°01'0 0.0
2018-Jan-30 00:49N 46°38' E 031°01'0 0.0
2018-Jan-30 00:25N 46°38' E 031°01'0 0.0
2018-Jan-29 23:55N 46°38' E 031°01'0 0.0
2018-Jan-29 23:01N 46°38' E 031°01'0 0.0
2018-Jan-29 22:55N 46°38' E 031°01'0 0.0
2018-Jan-29 22:25N 46°38' E 031°01'0 0.0
2018-Jan-29 21:55N 46°38' E 031°01'0 0.0
2018-Jan-29 21:25N 46°38' E 031°01'0 0.0
2018-Jan-29 20:49N 46°38' E 031°01'0 0.0
2018-Jan-29 20:19N 46°38' E 031°01'0 0.0
2018-Jan-29 19:55N 46°38' E 031°01'0 0.0
2018-Jan-29 19:25N 46°38' E 031°01'0 0.0
2018-Jan-29 18:55N 46°38' E 031°01'0 0.0
2018-Jan-29 18:30N 46°38' E 031°01'0 0.0
2018-Jan-29 18:00N 46°38' E 031°01'0 0.0
2018-Jan-29 17:30N 46°38' E 031°01'0 0.0
2018-Jan-29 16:06N 46°38' E 031°01'0 0.0
2018-Jan-29 13:54N 46°38' E 031°01'0 0.0
2018-Jan-29 10:00N 46°38' E 031°01'0 0.0
2018-Jan-29 08:33N 46°38' E 031°01'0 0.0
2018-Jan-29 08:24N 46°38' E 031°01'0 0.0
2018-Jan-29 07:48N 46°38' E 031°01'0 0.0
2018-Jan-29 06:36N 46°38' E 031°01'0 0.0
2018-Jan-29 06:30N 46°38' E 031°01'0 0.0
2018-Jan-29 06:00N 46°38' E 031°01'0 0.0
2018-Jan-29 05:30N 46°38' E 031°01'0 0.0
2018-Jan-29 04:57N 46°38' E 031°01'0 0.0
2018-Jan-29 04:30N 46°38' E 031°01'0 0.0
2018-Jan-29 04:00N 46°38' E 031°01'0 0.0
2018-Jan-29 03:21N 46°38' E 031°01'0 0.0
2018-Jan-29 02:24N 46°38' E 031°01'0 0.0
2018-Jan-29 02:00N 46°38' E 031°01'0 0.0
2018-Jan-29 01:30N 46°38' E 031°01'0 0.0
2018-Jan-29 01:00N 46°38' E 031°01'0 0.0
2018-Jan-29 00:30N 46°38' E 031°01'0 0.0
2018-Jan-28 22:42N 46°38' E 031°01'0 0.0
2018-Jan-28 22:30N 46°38' E 031°01'0 0.0
2018-Jan-28 21:52N 46°38' E 031°01'0 0.0
2018-Jan-28 21:04N 46°38' E 031°01'0 0.0
2018-Jan-28 20:58N 46°38' E 031°01'0 0.0
2018-Jan-28 20:22N 46°38' E 031°01'0 0.0
2018-Jan-28 19:58N 46°38' E 031°01'0 0.0
2018-Jan-28 19:22N 46°38' E 031°01'0 0.0
2018-Jan-28 18:46N 46°38' E 031°01'0 0.0
2018-Jan-28 18:22N 46°38' E 031°01'0 0.0
2018-Jan-28 17:58N 46°38' E 031°01'0 0.0
2018-Jan-28 17:28N 46°38' E 031°01'0 0.0
2018-Jan-28 16:46N 46°38' E 031°01'0 0.0
2018-Jan-28 16:22N 46°38' E 031°01'0 0.0
2018-Jan-28 15:46N 46°38' E 031°01'0 0.0
2018-Jan-28 15:28N 46°38' E 031°01'0 0.0
2018-Jan-28 14:58N 46°38' E 031°01'0 0.0
2018-Jan-28 14:28N 46°38' E 031°01'0 0.0
2018-Jan-28 13:58N 46°38' E 031°01'0 0.0
2018-Jan-28 13:22N 46°38' E 031°01'0 0.0
2018-Jan-28 12:58N 46°38' E 031°01'0 0.0
2018-Jan-28 12:22N 46°38' E 031°01'0 0.0
2018-Jan-28 11:58N 46°38' E 031°01'0 0.0
2018-Jan-28 11:28N 46°38' E 031°01'0 0.0
2018-Jan-28 10:52N 46°38' E 031°01'0 0.0
2018-Jan-28 10:28N 46°38' E 031°01'0 0.0
2018-Jan-28 09:58N 46°38' E 031°01'0 0.0
2018-Jan-28 09:22N 46°38' E 031°01'0 0.0
2018-Jan-28 08:58N 46°38' E 031°01'0 0.0
2018-Jan-28 08:28N 46°38' E 031°01'0 0.0
2018-Jan-28 07:58N 46°38' E 031°01'0 0.0
2018-Jan-28 07:28N 46°38' E 031°01'0 0.0
2018-Jan-28 06:52N 46°38' E 031°01'0 0.0
2018-Jan-28 06:28N 46°38' E 031°01'0 0.0
2018-Jan-28 04:22N 46°38' E 031°01'0 0.0
2018-Jan-28 03:16N 46°38' E 031°01'0 0.0
2018-Jan-28 02:58N 46°38' E 031°01'0 0.0
2018-Jan-28 01:45N 46°38' E 031°01'0 0.0
2018-Jan-28 01:30N 46°38' E 031°01'0 0.0
2018-Jan-28 00:45N 46°38' E 031°01'0 0.0
2018-Jan-28 00:27N 46°38' E 031°01'0 0.0
2018-Jan-27 23:57N 46°38' E 031°01'  

Dump ship's entire track history